Terminal Aerodrome Forecast
Issued by NWS Chicago, IL

Home | Current Version | Previous Version | Graphics & Text | Print | Product List | Glossary On
Versions: 1 2 3 4 5 6 7 8 9 10 11 12 13 14 15 16 17 18 19 20 21 22 23 24 25 26 27 28 29 30 31
859
FTUS43 KLOT 281501 AAB
TAFRFD
TAF AMD
KRFD 281501Z 2815/2912 04008KT 6SM HZ OVC012
     FM282200 06009KT P6SM SCT015 BKN025
     FM290700 06007KT P6SM FEW007 OVC025=

USA.gov is the U.S. government's official web portal to all federal, state and local government web resources and services.